Main page
METAR-TAF:

METAR-TAF

Airports :

Bogashevo Airport

Tomsk, Russia

latitude: 56-23-12N, longitude: 085-12-38E, elevation: 182 m

Current weather observation

The report was made 34 minutes ago, at 17:30 UTC
Wind 10 kt from the South/Southwest
Temperature 6°C
Humidity 75%
Pressure 1017 hPa
Visibility 10 km or more
Scattered clouds at a height of 3800 ft

METAR: UNTT 241730Z 21005MPS 9999 SCT038 06/02 Q1017 R21/////// NOSIG RMK QFE747

Time: 01:04 (18:04 UTC)

Forecast

The report was made 1 hour and 4 minutes ago, at 17:00 UTC
Forecast valid from 24 at 18 UTC to 25 at 03 UTC
Wind 10 kt from the South/Southwest with gusts up to 19 kt
Visibility: 6000 m
Broken clouds at a height of 1600 ft, Cumulonimbus.
light rain showers
Temporary
from 24 at 18 UTC to 24 at 21 UTC
Wind 6 kt from the West/Southwest with gusts up to 16 kt

TAF: UNTT 241700Z 2418/2503 20005G10MPS 6000 -SHRA BKN016CB TEMPO 2418/2421 24003G08MPS

Weather observations and forecasts of more than 4000 airports (METAR and TAF reports).

The available stations are represented by yellow and red dots on the map.

Hover mouse over dot to see the name of the station.

Then click to see weather observations and forecasts.

To change the map : click on the green buttons with a black cross to zoom in, on the green button with a dash to zoom out, or on the green arrows for adjacent maps.


METAR-TAF: